sensor_id;sensor_type;location;lat;lon;timestamp;temperature;humidity
32965;DHT22;19317;48.226;11.686;2023-04-08T00:00:54;5.70;99.90
32965;DHT22;19317;48.226;11.686;2023-04-08T00:05:44;5.50;99.90
32965;DHT22;19317;48.226;11.686;2023-04-08T00:10:35;5.50;99.90
32965;DHT22;19317;48.226;11.686;2023-04-08T00:15:25;5.60;99.90
32965;DHT22;19317;48.226;11.686;2023-04-08T00:20:16;5.50;99.90
32965;DHT22;19317;48.226;11.686;2023-04-08T00:25:07;5.50;99.90
32965;DHT22;19317;48.226;11.686;2023-04-08T00:29:57;5.50;99.90
32965;DHT22;19317;48.226;11.686;2023-04-08T00:34:48;5.50;99.90
32965;DHT22;19317;48.226;11.686;2023-04-08T00:39:38;5.50;99.90
32965;DHT22;19317;48.226;11.686;2023-04-08T00:44:29;5.40;99.90
32965;DHT22;19317;48.226;11.686;2023-04-08T00:49:19;5.40;99.90
32965;DHT22;19317;48.226;11.686;2023-04-08T00:54:10;5.50;99.90
32965;DHT22;19317;48.226;11.686;2023-04-08T00:59:00;5.40;99.90
32965;DHT22;19317;48.226;11.686;2023-04-08T01:04:09;5.50;99.90
32965;DHT22;19317;48.226;11.686;2023-04-08T01:09:04;5.50;99.90
32965;DHT22;19317;48.226;11.686;2023-04-08T01:13:55;5.40;99.90
32965;DHT22;19317;48.226;11.686;2023-04-08T01:18:47;5.40;99.90
32965;DHT22;19317;48.226;11.686;2023-04-08T01:28:39;5.40;99.90
32965;DHT22;19317;48.226;11.686;2023-04-08T01:33:31;5.30;99.90
32965;DHT22;19317;48.226;11.686;2023-04-08T01:38:23;5.30;99.90
32965;DHT22;19317;48.226;11.686;2023-04-08T01:43:16;5.30;99.90
32965;DHT22;19317;48.226;11.686;2023-04-08T01:48:07;5.30;99.90
32965;DHT22;19317;48.226;11.686;2023-04-08T01:52:59;5.20;99.90
32965;DHT22;19317;48.226;11.686;2023-04-08T01:57:52;5.20;99.90
32965;DHT22;19317;48.226;11.686;2023-04-08T02:02:43;5.20;99.90
32965;DHT22;19317;48.226;11.686;2023-04-08T02:07:34;5.40;99.90
32965;DHT22;19317;48.226;11.686;2023-04-08T02:12:26;5.20;99.90
32965;DHT22;19317;48.226;11.686;2023-04-08T02:17:23;5.20;99.90
32965;DHT22;19317;48.226;11.686;2023-04-08T02:22:30;5.20;99.90
32965;DHT22;19317;48.226;11.686;2023-04-08T02:27:26;5.10;99.90
32965;DHT22;19317;48.226;11.686;2023-04-08T02:32:18;5.10;99.90
32965;DHT22;19317;48.226;11.686;2023-04-08T02:37:09;5.10;99.90
32965;DHT22;19317;48.226;11.686;2023-04-08T02:42:00;5.10;99.90
32965;DHT22;19317;48.226;11.686;2023-04-08T02:46:50;5.10;99.90
32965;DHT22;19317;48.226;11.686;2023-04-08T02:51:41;5.10;99.90
32965;DHT22;19317;48.226;11.686;2023-04-08T02:56:31;5.20;99.90
32965;DHT22;19317;48.226;11.686;2023-04-08T03:01:22;5.10;99.90
32965;DHT22;19317;48.226;11.686;2023-04-08T03:06:12;5.10;99.90
32965;DHT22;19317;48.226;11.686;2023-04-08T03:11:03;5.10;99.90
32965;DHT22;19317;48.226;11.686;2023-04-08T03:15:53;5.10;99.90
32965;DHT22;19317;48.226;11.686;2023-04-08T03:20:44;5.10;99.90
32965;DHT22;19317;48.226;11.686;2023-04-08T03:25:34;5.10;99.90
32965;DHT22;19317;48.226;11.686;2023-04-08T03:30:25;5.00;99.90
32965;DHT22;19317;48.226;11.686;2023-04-08T03:35:15;5.00;99.90
32965;DHT22;19317;48.226;11.686;2023-04-08T03:40:06;5.00;99.90
32965;DHT22;19317;48.226;11.686;2023-04-08T03:44:57;4.90;99.90
32965;DHT22;19317;48.226;11.686;2023-04-08T03:49:47;4.90;99.90
32965;DHT22;19317;48.226;11.686;2023-04-08T03:54:38;4.90;99.90
32965;DHT22;19317;48.226;11.686;2023-04-08T03:59:28;4.90;99.90
32965;DHT22;19317;48.226;11.686;2023-04-08T04:04:19;5.00;99.90
32965;DHT22;19317;48.226;11.686;2023-04-08T04:09:09;4.90;99.90
32965;DHT22;19317;48.226;11.686;2023-04-08T04:14:00;4.90;99.90
32965;DHT22;19317;48.226;11.686;2023-04-08T04:18:51;5.00;99.90
32965;DHT22;19317;48.226;11.686;2023-04-08T04:23:42;4.90;99.90
32965;DHT22;19317;48.226;11.686;2023-04-08T04:28:32;4.90;99.90
32965;DHT22;19317;48.226;11.686;2023-04-08T04:33:23;4.90;99.90
32965;DHT22;19317;48.226;11.686;2023-04-08T04:38:13;4.90;99.90
32965;DHT22;19317;48.226;11.686;2023-04-08T04:43:04;4.90;99.90
32965;DHT22;19317;48.226;11.686;2023-04-08T04:47:54;4.80;99.90
32965;DHT22;19317;48.226;11.686;2023-04-08T04:52:45;4.80;99.90
32965;DHT22;19317;48.226;11.686;2023-04-08T04:57:35;4.80;99.90
32965;DHT22;19317;48.226;11.686;2023-04-08T05:02:26;4.80;99.90
32965;DHT22;19317;48.226;11.686;2023-04-08T05:07:16;4.90;99.90
32965;DHT22;19317;48.226;11.686;2023-04-08T05:12:07;4.90;99.90
32965;DHT22;19317;48.226;11.686;2023-04-08T05:16:57;4.90;99.90
32965;DHT22;19317;48.226;11.686;2023-04-08T05:21:47;5.00;99.90
32965;DHT22;19317;48.226;11.686;2023-04-08T05:26:38;5.00;99.90
32965;DHT22;19317;48.226;11.686;2023-04-08T05:31:28;5.10;99.90
32965;DHT22;19317;48.226;11.686;2023-04-08T05:36:19;5.10;99.90
32965;DHT22;19317;48.226;11.686;2023-04-08T05:41:09;5.10;99.90
32965;DHT22;19317;48.226;11.686;2023-04-08T05:46:07;5.20;99.90
32965;DHT22;19317;48.226;11.686;2023-04-08T05:50:58;5.30;99.90
32965;DHT22;19317;48.226;11.686;2023-04-08T05:55:49;5.20;99.90
32965;DHT22;19317;48.226;11.686;2023-04-08T06:00:39;5.20;99.90
32965;DHT22;19317;48.226;11.686;2023-04-08T06:05:30;5.30;99.90
32965;DHT22;19317;48.226;11.686;2023-04-08T06:10:20;5.30;99.90
32965;DHT22;19317;48.226;11.686;2023-04-08T06:15:11;5.40;99.90
32965;DHT22;19317;48.226;11.686;2023-04-08T06:20:02;5.40;99.90
32965;DHT22;19317;48.226;11.686;2023-04-08T06:24:52;5.40;99.90
32965;DHT22;19317;48.226;11.686;2023-04-08T06:29:43;5.30;99.90
32965;DHT22;19317;48.226;11.686;2023-04-08T06:34:33;5.50;99.90
32965;DHT22;19317;48.226;11.686;2023-04-08T06:39:24;5.50;99.90
32965;DHT22;19317;48.226;11.686;2023-04-08T06:44:14;5.50;99.90
32965;DHT22;19317;48.226;11.686;2023-04-08T06:49:04;5.60;99.90
32965;DHT22;19317;48.226;11.686;2023-04-08T06:53:55;5.60;99.90
32965;DHT22;19317;48.226;11.686;2023-04-08T06:58:45;5.60;99.90
32965;DHT22;19317;48.226;11.686;2023-04-08T07:03:36;5.70;99.90
32965;DHT22;19317;48.226;11.686;2023-04-08T07:08:26;5.70;99.90
32965;DHT22;19317;48.226;11.686;2023-04-08T07:13:17;5.90;99.90
32965;DHT22;19317;48.226;11.686;2023-04-08T07:18:07;5.90;99.90
32965;DHT22;19317;48.226;11.686;2023-04-08T07:22:58;5.70;99.90
32965;DHT22;19317;48.226;11.686;2023-04-08T07:27:48;5.80;99.90
32965;DHT22;19317;48.226;11.686;2023-04-08T07:32:38;5.70;99.90
32965;DHT22;19317;48.226;11.686;2023-04-08T07:37:29;5.80;99.90
32965;DHT22;19317;48.226;11.686;2023-04-08T07:42:20;5.90;99.90
32965;DHT22;19317;48.226;11.686;2023-04-08T07:47:11;6.00;99.90
32965;DHT22;19317;48.226;11.686;2023-04-08T07:52:01;5.90;99.90
32965;DHT22;19317;48.226;11.686;2023-04-08T07:56:52;5.90;99.90
32965;DHT22;19317;48.226;11.686;2023-04-08T08:01:42;6.00;99.90
32965;DHT22;19317;48.226;11.686;2023-04-08T08:06:33;6.10;99.90
32965;DHT22;19317;48.226;11.686;2023-04-08T08:11:23;6.20;99.90
32965;DHT22;19317;48.226;11.686;2023-04-08T08:16:14;6.20;99.90
32965;DHT22;19317;48.226;11.686;2023-04-08T08:21:04;6.00;99.90
32965;DHT22;19317;48.226;11.686;2023-04-08T08:26:05;5.70;99.90
32965;DHT22;19317;48.226;11.686;2023-04-08T08:30:55;5.60;99.90
32965;DHT22;19317;48.226;11.686;2023-04-08T08:35:46;5.40;99.90
32965;DHT22;19317;48.226;11.686;2023-04-08T08:40:36;5.20;99.90
32965;DHT22;19317;48.226;11.686;2023-04-08T08:45:27;5.20;99.90
32965;DHT22;19317;48.226;11.686;2023-04-08T08:50:18;5.20;99.90
32965;DHT22;19317;48.226;11.686;2023-04-08T09:00:01;6.30;99.90
32965;DHT22;19317;48.226;11.686;2023-04-08T09:05:00;5.40;99.90
32965;DHT22;19317;48.226;11.686;2023-04-08T09:09:52;5.40;99.90
32965;DHT22;19317;48.226;11.686;2023-04-08T09:14:42;5.40;99.90
32965;DHT22;19317;48.226;11.686;2023-04-08T09:19:33;5.50;99.90
32965;DHT22;19317;48.226;11.686;2023-04-08T09:24:28;5.60;99.90
32965;DHT22;19317;48.226;11.686;2023-04-08T09:29:22;5.70;99.90
32965;DHT22;19317;48.226;11.686;2023-04-08T09:34:15;5.60;99.90
32965;DHT22;19317;48.226;11.686;2023-04-08T09:39:05;5.50;99.90
32965;DHT22;19317;48.226;11.686;2023-04-08T09:43:57;5.70;99.90
32965;DHT22;19317;48.226;11.686;2023-04-08T09:48:55;5.70;99.90
32965;DHT22;19317;48.226;11.686;2023-04-08T09:53:48;5.90;99.90
32965;DHT22;19317;48.226;11.686;2023-04-08T09:58:50;5.90;99.90
32965;DHT22;19317;48.226;11.686;2023-04-08T10:03:51;5.90;99.90
32965;DHT22;19317;48.226;11.686;2023-04-08T10:08:44;6.00;99.90
32965;DHT22;19317;48.226;11.686;2023-04-08T10:13:35;6.10;99.90
32965;DHT22;19317;48.226;11.686;2023-04-08T10:18:29;5.80;99.90
32965;DHT22;19317;48.226;11.686;2023-04-08T10:23:53;6.00;99.90
32965;DHT22;19317;48.226;11.686;2023-04-08T10:28:43;5.90;99.90
32965;DHT22;19317;48.226;11.686;2023-04-08T10:33:34;5.70;99.90
32965;DHT22;19317;48.226;11.686;2023-04-08T10:38:25;5.80;99.90
32965;DHT22;19317;48.226;11.686;2023-04-08T10:43:15;5.80;99.90
32965;DHT22;19317;48.226;11.686;2023-04-08T10:53:02;5.50;99.90
32965;DHT22;19317;48.226;11.686;2023-04-08T10:57:54;5.40;99.90
32965;DHT22;19317;48.226;11.686;2023-04-08T11:02:44;5.40;99.90
32965;DHT22;19317;48.226;11.686;2023-04-08T11:07:41;5.30;99.90
32965;DHT22;19317;48.226;11.686;2023-04-08T11:12:31;5.50;99.90
32965;DHT22;19317;48.226;11.686;2023-04-08T11:17:22;5.40;99.90
32965;DHT22;19317;48.226;11.686;2023-04-08T11:22:12;5.40;99.90
32965;DHT22;19317;48.226;11.686;2023-04-08T11:27:03;5.20;99.90
32965;DHT22;19317;48.226;11.686;2023-04-08T11:31:54;5.30;99.90
32965;DHT22;19317;48.226;11.686;2023-04-08T11:36:46;5.30;99.90
32965;DHT22;19317;48.226;11.686;2023-04-08T11:41:37;5.20;99.90
32965;DHT22;19317;48.226;11.686;2023-04-08T11:46:27;5.10;99.90
32965;DHT22;19317;48.226;11.686;2023-04-08T11:51:18;5.10;99.90
32965;DHT22;19317;48.226;11.686;2023-04-08T11:56:16;5.00;99.90
32965;DHT22;19317;48.226;11.686;2023-04-08T12:01:06;5.00;99.90
32965;DHT22;19317;48.226;11.686;2023-04-08T12:05:57;5.20;99.90
32965;DHT22;19317;48.226;11.686;2023-04-08T12:10:47;5.10;99.90
32965;DHT22;19317;48.226;11.686;2023-04-08T12:15:38;5.20;99.90
32965;DHT22;19317;48.226;11.686;2023-04-08T12:20:28;5.00;99.90
32965;DHT22;19317;48.226;11.686;2023-04-08T12:25:18;4.90;99.90
32965;DHT22;19317;48.226;11.686;2023-04-08T12:30:09;5.10;99.90
32965;DHT22;19317;48.226;11.686;2023-04-08T12:35:00;5.00;99.90
32965;DHT22;19317;48.226;11.686;2023-04-08T12:39:50;5.10;99.90
32965;DHT22;19317;48.226;11.686;2023-04-08T12:44:41;4.90;99.90
32965;DHT22;19317;48.226;11.686;2023-04-08T12:49:31;4.80;99.90
32965;DHT22;19317;48.226;11.686;2023-04-08T12:54:22;4.90;99.90
32965;DHT22;19317;48.226;11.686;2023-04-08T12:59:12;4.70;99.90
32965;DHT22;19317;48.226;11.686;2023-04-08T13:04:03;4.80;99.90
32965;DHT22;19317;48.226;11.686;2023-04-08T13:08:53;4.80;99.90
32965;DHT22;19317;48.226;11.686;2023-04-08T13:13:44;4.90;99.90
32965;DHT22;19317;48.226;11.686;2023-04-08T13:18:34;4.90;99.90
32965;DHT22;19317;48.226;11.686;2023-04-08T13:23:25;4.90;99.90
32965;DHT22;19317;48.226;11.686;2023-04-08T13:28:15;5.10;99.90
32965;DHT22;19317;48.226;11.686;2023-04-08T13:33:06;5.10;99.90
32965;DHT22;19317;48.226;11.686;2023-04-08T13:37:56;5.20;99.90
32965;DHT22;19317;48.226;11.686;2023-04-08T13:42:47;5.00;99.90
32965;DHT22;19317;48.226;11.686;2023-04-08T13:47:37;5.10;99.90
32965;DHT22;19317;48.226;11.686;2023-04-08T13:52:28;5.20;99.90
32965;DHT22;19317;48.226;11.686;2023-04-08T13:57:18;5.00;99.90
32965;DHT22;19317;48.226;11.686;2023-04-08T14:02:09;5.10;99.90
32965;DHT22;19317;48.226;11.686;2023-04-08T14:06:59;5.10;99.90
32965;DHT22;19317;48.226;11.686;2023-04-08T14:11:49;5.40;99.90
32965;DHT22;19317;48.226;11.686;2023-04-08T14:16:40;5.40;99.90
32965;DHT22;19317;48.226;11.686;2023-04-08T14:21:31;5.30;99.90
32965;DHT22;19317;48.226;11.686;2023-04-08T14:26:21;5.50;99.90
32965;DHT22;19317;48.226;11.686;2023-04-08T14:31:12;5.30;99.90
32965;DHT22;19317;48.226;11.686;2023-04-08T14:36:03;5.40;99.90
32965;DHT22;19317;48.226;11.686;2023-04-08T14:40:53;5.40;99.90
32965;DHT22;19317;48.226;11.686;2023-04-08T14:45:44;5.50;99.90
32965;DHT22;19317;48.226;11.686;2023-04-08T14:50:34;5.00;99.90
32965;DHT22;19317;48.226;11.686;2023-04-08T14:55:25;5.50;99.90
32965;DHT22;19317;48.226;11.686;2023-04-08T15:00:15;5.50;99.90
32965;DHT22;19317;48.226;11.686;2023-04-08T15:05:06;5.50;99.90
32965;DHT22;19317;48.226;11.686;2023-04-08T15:09:56;5.50;99.90
32965;DHT22;19317;48.226;11.686;2023-04-08T15:14:47;5.50;99.90
32965;DHT22;19317;48.226;11.686;2023-04-08T15:19:37;5.50;99.90
32965;DHT22;19317;48.226;11.686;2023-04-08T15:24:28;5.50;99.90
32965;DHT22;19317;48.226;11.686;2023-04-08T15:29:18;5.60;99.90
32965;DHT22;19317;48.226;11.686;2023-04-08T15:34:11;5.50;99.90
32965;DHT22;19317;48.226;11.686;2023-04-08T15:39:01;5.40;99.90
32965;DHT22;19317;48.226;11.686;2023-04-08T15:43:52;5.40;99.90
32965;DHT22;19317;48.226;11.686;2023-04-08T15:48:42;5.40;99.90
32965;DHT22;19317;48.226;11.686;2023-04-08T15:53:33;5.40;99.90
32965;DHT22;19317;48.226;11.686;2023-04-08T15:58:23;5.30;99.90
32965;DHT22;19317;48.226;11.686;2023-04-08T16:03:14;5.30;99.90
32965;DHT22;19317;48.226;11.686;2023-04-08T16:08:04;5.30;99.90
32965;DHT22;19317;48.226;11.686;2023-04-08T16:12:55;5.20;99.90
32965;DHT22;19317;48.226;11.686;2023-04-08T16:17:51;5.20;99.90
32965;DHT22;19317;48.226;11.686;2023-04-08T16:22:42;5.30;99.90
32965;DHT22;19317;48.226;11.686;2023-04-08T16:27:32;5.30;99.90
32965;DHT22;19317;48.226;11.686;2023-04-08T16:32:23;5.30;99.90
32965;DHT22;19317;48.226;11.686;2023-04-08T16:37:13;5.40;99.90
32965;DHT22;19317;48.226;11.686;2023-04-08T16:42:03;5.50;99.90
32965;DHT22;19317;48.226;11.686;2023-04-08T16:46:54;5.50;99.90
32965;DHT22;19317;48.226;11.686;2023-04-08T16:51:44;5.50;99.90
32965;DHT22;19317;48.226;11.686;2023-04-08T16:56:35;5.60;99.90
32965;DHT22;19317;48.226;11.686;2023-04-08T17:01:25;5.50;99.90
32965;DHT22;19317;48.226;11.686;2023-04-08T17:06:16;5.50;99.90
32965;DHT22;19317;48.226;11.686;2023-04-08T17:11:07;5.60;99.90
32965;DHT22;19317;48.226;11.686;2023-04-08T17:15:58;5.70;99.90
32965;DHT22;19317;48.226;11.686;2023-04-08T17:20:48;5.60;99.90
32965;DHT22;19317;48.226;11.686;2023-04-08T17:25:39;5.60;99.90
32965;DHT22;19317;48.226;11.686;2023-04-08T17:30:29;5.60;99.90
32965;DHT22;19317;48.226;11.686;2023-04-08T17:35:20;5.70;99.90
32965;DHT22;19317;48.226;11.686;2023-04-08T17:40:10;5.50;99.90
32965;DHT22;19317;48.226;11.686;2023-04-08T17:45:01;5.60;99.90
32965;DHT22;19317;48.226;11.686;2023-04-08T17:49:54;5.60;99.90
32965;DHT22;19317;48.226;11.686;2023-04-08T17:54:44;5.50;99.90
32965;DHT22;19317;48.226;11.686;2023-04-08T17:59:34;5.40;99.90
32965;DHT22;19317;48.226;11.686;2023-04-08T18:04:25;5.40;99.90
32965;DHT22;19317;48.226;11.686;2023-04-08T18:09:15;5.40;99.90
32965;DHT22;19317;48.226;11.686;2023-04-08T18:14:06;5.50;99.90
32965;DHT22;19317;48.226;11.686;2023-04-08T18:18:56;5.30;99.90
32965;DHT22;19317;48.226;11.686;2023-04-08T18:23:48;5.40;99.90
32965;DHT22;19317;48.226;11.686;2023-04-08T18:28:39;5.40;99.90
32965;DHT22;19317;48.226;11.686;2023-04-08T18:33:29;5.40;99.90
32965;DHT22;19317;48.226;11.686;2023-04-08T18:38:19;5.30;99.90
32965;DHT22;19317;48.226;11.686;2023-04-08T18:43:10;5.30;99.90
32965;DHT22;19317;48.226;11.686;2023-04-08T18:48:01;5.40;99.90
32965;DHT22;19317;48.226;11.686;2023-04-08T18:52:51;5.40;99.90
32965;DHT22;19317;48.226;11.686;2023-04-08T18:57:42;5.20;99.90
32965;DHT22;19317;48.226;11.686;2023-04-08T19:02:32;5.60;99.90
32965;DHT22;19317;48.226;11.686;2023-04-08T19:07:23;5.40;99.90
32965;DHT22;19317;48.226;11.686;2023-04-08T19:12:13;5.30;99.90
32965;DHT22;19317;48.226;11.686;2023-04-08T19:17:03;5.30;99.90
32965;DHT22;19317;48.226;11.686;2023-04-08T19:21:54;5.30;99.90
32965;DHT22;19317;48.226;11.686;2023-04-08T19:26:44;5.30;99.90
32965;DHT22;19317;48.226;11.686;2023-04-08T19:31:35;5.40;99.90
32965;DHT22;19317;48.226;11.686;2023-04-08T19:36:25;5.40;99.90
32965;DHT22;19317;48.226;11.686;2023-04-08T19:41:16;5.40;99.90
32965;DHT22;19317;48.226;11.686;2023-04-08T19:46:06;5.40;99.90
32965;DHT22;19317;48.226;11.686;2023-04-08T19:50:57;5.50;99.90
32965;DHT22;19317;48.226;11.686;2023-04-08T19:55:47;5.60;99.90
32965;DHT22;19317;48.226;11.686;2023-04-08T20:00:37;5.70;99.90
32965;DHT22;19317;48.226;11.686;2023-04-08T20:05:28;5.60;99.90
32965;DHT22;19317;48.226;11.686;2023-04-08T20:10:18;5.60;99.90
32965;DHT22;19317;48.226;11.686;2023-04-08T20:15:09;5.40;99.90
32965;DHT22;19317;48.226;11.686;2023-04-08T20:20:00;5.40;99.90
32965;DHT22;19317;48.226;11.686;2023-04-08T20:24:50;5.50;99.90
32965;DHT22;19317;48.226;11.686;2023-04-08T20:29:41;5.60;99.90
32965;DHT22;19317;48.226;11.686;2023-04-08T20:34:32;5.70;99.90
32965;DHT22;19317;48.226;11.686;2023-04-08T20:39:22;5.70;99.90
32965;DHT22;19317;48.226;11.686;2023-04-08T20:44:13;5.80;99.90
32965;DHT22;19317;48.226;11.686;2023-04-08T20:49:04;5.80;99.90
32965;DHT22;19317;48.226;11.686;2023-04-08T20:53:54;5.80;99.90
32965;DHT22;19317;48.226;11.686;2023-04-08T20:58:45;5.80;99.90
32965;DHT22;19317;48.226;11.686;2023-04-08T21:03:35;5.80;99.90
32965;DHT22;19317;48.226;11.686;2023-04-08T21:08:25;5.90;99.90
32965;DHT22;19317;48.226;11.686;2023-04-08T21:13:16;6.00;99.90
32965;DHT22;19317;48.226;11.686;2023-04-08T21:18:06;6.00;99.90
32965;DHT22;19317;48.226;11.686;2023-04-08T21:22:57;6.00;99.90
32965;DHT22;19317;48.226;11.686;2023-04-08T21:27:47;6.00;99.90
32965;DHT22;19317;48.226;11.686;2023-04-08T21:32:38;5.90;99.90
32965;DHT22;19317;48.226;11.686;2023-04-08T21:37:28;5.80;99.90
32965;DHT22;19317;48.226;11.686;2023-04-08T21:42:19;5.80;99.90
32965;DHT22;19317;48.226;11.686;2023-04-08T21:47:09;5.90;99.90
32965;DHT22;19317;48.226;11.686;2023-04-08T21:52:00;5.70;99.90
32965;DHT22;19317;48.226;11.686;2023-04-08T21:56:50;5.70;99.90
32965;DHT22;19317;48.226;11.686;2023-04-08T22:01:41;5.50;99.90
32965;DHT22;19317;48.226;11.686;2023-04-08T22:06:31;5.60;99.90
32965;DHT22;19317;48.226;11.686;2023-04-08T22:11:22;5.70;99.90
32965;DHT22;19317;48.226;11.686;2023-04-08T22:16:12;5.60;99.90
32965;DHT22;19317;48.226;11.686;2023-04-08T22:21:02;5.60;99.90
32965;DHT22;19317;48.226;11.686;2023-04-08T22:25:53;5.50;99.90
32965;DHT22;19317;48.226;11.686;2023-04-08T22:30:44;5.40;99.90
32965;DHT22;19317;48.226;11.686;2023-04-08T22:35:34;5.40;99.90
32965;DHT22;19317;48.226;11.686;2023-04-08T22:40:25;5.40;99.90
32965;DHT22;19317;48.226;11.686;2023-04-08T22:45:15;5.30;99.90
32965;DHT22;19317;48.226;11.686;2023-04-08T22:50:06;4.80;99.90
32965;DHT22;19317;48.226;11.686;2023-04-08T22:54:57;4.90;99.90
32965;DHT22;19317;48.226;11.686;2023-04-08T22:59:47;5.10;99.90
32965;DHT22;19317;48.226;11.686;2023-04-08T23:04:37;5.20;99.90
32965;DHT22;19317;48.226;11.686;2023-04-08T23:09:28;5.00;99.90
32965;DHT22;19317;48.226;11.686;2023-04-08T23:14:18;5.00;99.90
32965;DHT22;19317;48.226;11.686;2023-04-08T23:24:37;5.10;99.90
32965;DHT22;19317;48.226;11.686;2023-04-08T23:29:27;4.90;99.90
32965;DHT22;19317;48.226;11.686;2023-04-08T23:34:18;4.90;99.90
32965;DHT22;19317;48.226;11.686;2023-04-08T23:39:08;5.10;99.90
32965;DHT22;19317;48.226;11.686;2023-04-08T23:43:59;5.10;99.90
32965;DHT22;19317;48.226;11.686;2023-04-08T23:48:49;4.80;99.90
32965;DHT22;19317;48.226;11.686;2023-04-08T23:53:39;4.80;99.90
32965;DHT22;19317;48.226;11.686;2023-04-08T23:58:30;4.90;99.90
